sensor_id;sensor_type;location;lat;lon;timestamp;P1;durP1;ratioP1;P2;durP2;ratioP2
25331;SDS011;13284;52.748;13.452;2022-08-04T00:02:40;5.80;;;5.40;;
25331;SDS011;13284;52.748;13.452;2022-08-04T00:05:28;6.67;;;6.13;;
25331;SDS011;13284;52.748;13.452;2022-08-04T00:08:21;6.57;;;6.07;;
25331;SDS011;13284;52.748;13.452;2022-08-04T00:11:15;5.90;;;5.50;;
25331;SDS011;13284;52.748;13.452;2022-08-04T00:13:49;6.97;;;6.37;;
25331;SDS011;13284;52.748;13.452;2022-08-04T00:16:19;6.40;;;5.90;;
25331;SDS011;13284;52.748;13.452;2022-08-04T00:18:54;6.77;;;6.23;;
25331;SDS011;13284;52.748;13.452;2022-08-04T00:21:24;6.90;;;6.20;;
25331;SDS011;13284;52.748;13.452;2022-08-04T00:23:52;6.20;;;5.70;;
25331;SDS011;13284;52.748;13.452;2022-08-04T00:26:19;6.47;;;5.87;;
25331;SDS011;13284;52.748;13.452;2022-08-04T00:28:45;6.60;;;6.10;;
25331;SDS011;13284;52.748;13.452;2022-08-04T00:31:12;6.33;;;5.83;;
25331;SDS011;13284;52.748;13.452;2022-08-04T00:33:42;6.80;;;6.20;;
25331;SDS011;13284;52.748;13.452;2022-08-04T00:36:10;6.07;;;5.57;;
25331;SDS011;13284;52.748;13.452;2022-08-04T00:38:39;7.00;;;6.40;;
25331;SDS011;13284;52.748;13.452;2022-08-04T00:43:42;6.60;;;6.10;;
25331;SDS011;13284;52.748;13.452;2022-08-04T00:49:15;7.00;;;6.10;;
25331;SDS011;13284;52.748;13.452;2022-08-04T00:54:33;6.60;;;6.00;;
25331;SDS011;13284;52.748;13.452;2022-08-04T01:00:16;6.47;;;5.87;;
25331;SDS011;13284;52.748;13.452;2022-08-04T01:02:49;7.43;;;6.83;;
25331;SDS011;13284;52.748;13.452;2022-08-04T01:11:30;7.90;;;7.20;;
25331;SDS011;13284;52.748;13.452;2022-08-04T01:28:05;7.33;;;6.73;;
25331;SDS011;13284;52.748;13.452;2022-08-04T01:30:54;6.80;;;6.20;;
25331;SDS011;13284;52.748;13.452;2022-08-04T01:33:22;7.50;;;6.80;;
25331;SDS011;13284;52.748;13.452;2022-08-04T01:35:54;7.00;;;6.43;;
25331;SDS011;13284;52.748;13.452;2022-08-04T01:38:29;7.03;;;6.40;;
25331;SDS011;13284;52.748;13.452;2022-08-04T01:41:08;6.83;;;6.33;;
25331;SDS011;13284;52.748;13.452;2022-08-04T01:43:40;6.97;;;6.47;;
25331;SDS011;13284;52.748;13.452;2022-08-04T01:46:09;12.73;;;11.43;;
25331;SDS011;13284;52.748;13.452;2022-08-04T01:48:37;13.80;;;12.30;;
25331;SDS011;13284;52.748;13.452;2022-08-04T01:51:05;10.70;;;9.70;;
25331;SDS011;13284;52.748;13.452;2022-08-04T01:53:32;8.77;;;7.97;;
25331;SDS011;13284;52.748;13.452;2022-08-04T01:56:00;7.90;;;7.23;;
25331;SDS011;13284;52.748;13.452;2022-08-04T01:58:28;7.80;;;7.10;;
25331;SDS011;13284;52.748;13.452;2022-08-04T02:00:59;7.37;;;6.70;;
25331;SDS011;13284;52.748;13.452;2022-08-04T02:03:30;7.87;;;7.27;;
25331;SDS011;13284;52.748;13.452;2022-08-04T02:06:03;7.53;;;6.93;;
25331;SDS011;13284;52.748;13.452;2022-08-04T02:11:14;18.10;;;15.73;;
25331;SDS011;13284;52.748;13.452;2022-08-04T02:13:50;8.40;;;7.60;;
25331;SDS011;13284;52.748;13.452;2022-08-04T02:21:57;8.17;;;7.47;;
25331;SDS011;13284;52.748;13.452;2022-08-04T02:24:30;7.90;;;7.20;;
25331;SDS011;13284;52.748;13.452;2022-08-04T02:26:56;7.90;;;7.20;;
25331;SDS011;13284;52.748;13.452;2022-08-04T02:32:27;8.00;;;7.40;;
25331;SDS011;13284;52.748;13.452;2022-08-04T02:37:31;8.13;;;7.47;;
25331;SDS011;13284;52.748;13.452;2022-08-04T02:39:58;7.57;;;6.97;;
25331;SDS011;13284;52.748;13.452;2022-08-04T02:42:26;7.77;;;7.13;;
25331;SDS011;13284;52.748;13.452;2022-08-04T02:44:53;7.77;;;7.17;;
25331;SDS011;13284;52.748;13.452;2022-08-04T02:47:22;7.97;;;7.27;;
25331;SDS011;13284;52.748;13.452;2022-08-04T02:49:49;7.90;;;7.30;;
25331;SDS011;13284;52.748;13.452;2022-08-04T02:52:16;8.40;;;7.70;;
25331;SDS011;13284;52.748;13.452;2022-08-04T02:54:44;8.20;;;7.50;;
25331;SDS011;13284;52.748;13.452;2022-08-04T02:57:11;7.80;;;7.20;;
25331;SDS011;13284;52.748;13.452;2022-08-04T02:59:46;7.90;;;7.20;;
25331;SDS011;13284;52.748;13.452;2022-08-04T03:02:12;6.50;;;6.00;;
25331;SDS011;13284;52.748;13.452;2022-08-04T03:04:42;7.63;;;7.00;;
25331;SDS011;13284;52.748;13.452;2022-08-04T03:07:41;8.40;;;7.57;;
25331;SDS011;13284;52.748;13.452;2022-08-04T03:10:39;7.07;;;6.50;;
25331;SDS011;13284;52.748;13.452;2022-08-04T03:13:34;6.70;;;6.20;;
25331;SDS011;13284;52.748;13.452;2022-08-04T03:19:57;8.03;;;7.33;;
25331;SDS011;13284;52.748;13.452;2022-08-04T03:25:40;8.60;;;7.80;;
25331;SDS011;13284;52.748;13.452;2022-08-04T03:28:30;7.50;;;6.90;;
25331;SDS011;13284;52.748;13.452;2022-08-04T03:34:09;7.97;;;7.37;;
25331;SDS011;13284;52.748;13.452;2022-08-04T03:42:37;8.37;;;7.67;;
25331;SDS011;13284;52.748;13.452;2022-08-04T03:45:38;9.30;;;8.10;;
25331;SDS011;13284;52.748;13.452;2022-08-04T03:48:31;7.57;;;6.87;;
25331;SDS011;13284;52.748;13.452;2022-08-04T04:00:17;9.03;;;7.60;;
25331;SDS011;13284;52.748;13.452;2022-08-04T04:02:56;7.60;;;7.00;;
25331;SDS011;13284;52.748;13.452;2022-08-04T04:17:08;8.80;;;8.00;;
25331;SDS011;13284;52.748;13.452;2022-08-04T04:25:32;8.97;;;8.17;;
25331;SDS011;13284;52.748;13.452;2022-08-04T04:28:05;9.00;;;8.10;;
25331;SDS011;13284;52.748;13.452;2022-08-04T04:50:51;8.67;;;7.97;;
25331;SDS011;13284;52.748;13.452;2022-08-04T04:56:26;9.27;;;8.47;;
25331;SDS011;13284;52.748;13.452;2022-08-04T04:59:00;8.27;;;7.63;;
25331;SDS011;13284;52.748;13.452;2022-08-04T05:01:33;8.13;;;7.40;;
25331;SDS011;13284;52.748;13.452;2022-08-04T05:10:12;12.23;;;8.70;;
25331;SDS011;13284;52.748;13.452;2022-08-04T05:13:24;8.90;;;8.10;;
25331;SDS011;13284;52.748;13.452;2022-08-04T05:16:32;9.70;;;9.00;;
25331;SDS011;13284;52.748;13.452;2022-08-04T05:21:44;32.70;;;27.00;;
25331;SDS011;13284;52.748;13.452;2022-08-04T05:24:37;19.07;;;17.07;;
25331;SDS011;13284;52.748;13.452;2022-08-04T05:27:16;18.60;;;16.73;;
25331;SDS011;13284;52.748;13.452;2022-08-04T05:29:54;12.13;;;11.03;;
25331;SDS011;13284;52.748;13.452;2022-08-04T05:35:36;8.90;;;8.20;;
25331;SDS011;13284;52.748;13.452;2022-08-04T05:41:44;9.60;;;8.80;;
25331;SDS011;13284;52.748;13.452;2022-08-04T06:41:44;8.43;;;7.83;;
25331;SDS011;13284;52.748;13.452;2022-08-04T06:44:10;8.13;;;7.43;;
25331;SDS011;13284;52.748;13.452;2022-08-04T06:46:41;8.83;;;8.00;;
25331;SDS011;13284;52.748;13.452;2022-08-04T06:49:09;7.30;;;6.70;;
25331;SDS011;13284;52.748;13.452;2022-08-04T06:51:36;8.73;;;8.13;;
25331;SDS011;13284;52.748;13.452;2022-08-04T06:54:06;9.03;;;8.10;;
25331;SDS011;13284;52.748;13.452;2022-08-04T06:56:38;7.83;;;7.13;;
25331;SDS011;13284;52.748;13.452;2022-08-04T07:02:14;8.50;;;7.80;;
25331;SDS011;13284;52.748;13.452;2022-08-04T07:04:47;8.50;;;7.90;;
25331;SDS011;13284;52.748;13.452;2022-08-04T07:07:13;7.87;;;7.27;;
25331;SDS011;13284;52.748;13.452;2022-08-04T07:09:39;7.53;;;6.93;;
25331;SDS011;13284;52.748;13.452;2022-08-04T07:12:06;6.90;;;6.40;;
25331;SDS011;13284;52.748;13.452;2022-08-04T07:14:40;8.00;;;7.30;;
25331;SDS011;13284;52.748;13.452;2022-08-04T07:17:09;7.83;;;7.27;;
25331;SDS011;13284;52.748;13.452;2022-08-04T07:19:35;9.47;;;8.70;;
25331;SDS011;13284;52.748;13.452;2022-08-04T07:22:02;6.90;;;6.40;;
25331;SDS011;13284;52.748;13.452;2022-08-04T07:24:35;6.10;;;5.70;;
25331;SDS011;13284;52.748;13.452;2022-08-04T07:27:01;6.70;;;6.30;;
25331;SDS011;13284;52.748;13.452;2022-08-04T07:29:31;8.70;;;6.33;;
25331;SDS011;13284;52.748;13.452;2022-08-04T07:31:58;6.40;;;5.80;;
25331;SDS011;13284;52.748;13.452;2022-08-04T07:34:24;6.60;;;6.10;;
25331;SDS011;13284;52.748;13.452;2022-08-04T07:36:51;15.93;;;8.60;;
25331;SDS011;13284;52.748;13.452;2022-08-04T07:39:25;6.13;;;5.53;;
25331;SDS011;13284;52.748;13.452;2022-08-04T07:41:52;7.57;;;6.20;;
25331;SDS011;13284;52.748;13.452;2022-08-04T07:44:19;10.07;;;6.60;;
25331;SDS011;13284;52.748;13.452;2022-08-04T07:46:45;8.60;;;5.17;;
25331;SDS011;13284;52.748;13.452;2022-08-04T07:49:11;4.93;;;4.63;;
25331;SDS011;13284;52.748;13.452;2022-08-04T07:51:40;5.10;;;4.63;;
25331;SDS011;13284;52.748;13.452;2022-08-04T07:54:06;4.67;;;4.37;;
25331;SDS011;13284;52.748;13.452;2022-08-04T07:56:35;4.90;;;4.50;;
25331;SDS011;13284;52.748;13.452;2022-08-04T07:59:04;4.70;;;4.40;;
25331;SDS011;13284;52.748;13.452;2022-08-04T08:01:33;3.93;;;3.63;;
25331;SDS011;13284;52.748;13.452;2022-08-04T08:04:00;4.30;;;4.00;;
25331;SDS011;13284;52.748;13.452;2022-08-04T08:06:29;4.77;;;4.33;;
25331;SDS011;13284;52.748;13.452;2022-08-04T08:08:58;4.07;;;3.77;;
25331;SDS011;13284;52.748;13.452;2022-08-04T08:11:25;4.10;;;3.70;;
25331;SDS011;13284;52.748;13.452;2022-08-04T08:13:51;4.70;;;4.40;;
25331;SDS011;13284;52.748;13.452;2022-08-04T08:16:16;4.63;;;4.30;;
25331;SDS011;13284;52.748;13.452;2022-08-04T08:18:45;4.20;;;3.90;;
25331;SDS011;13284;52.748;13.452;2022-08-04T08:21:10;4.90;;;4.37;;
25331;SDS011;13284;52.748;13.452;2022-08-04T08:23:44;4.17;;;3.77;;
25331;SDS011;13284;52.748;13.452;2022-08-04T08:26:09;3.80;;;3.50;;
25331;SDS011;13284;52.748;13.452;2022-08-04T08:28:35;3.73;;;3.53;;
25331;SDS011;13284;52.748;13.452;2022-08-04T08:31:01;4.67;;;4.37;;
25331;SDS011;13284;52.748;13.452;2022-08-04T08:33:26;4.13;;;3.70;;
25331;SDS011;13284;52.748;13.452;2022-08-04T08:36:00;4.27;;;3.87;;
25331;SDS011;13284;52.748;13.452;2022-08-04T08:47:26;4.70;;;4.30;;
25331;SDS011;13284;52.748;13.452;2022-08-04T08:50:29;4.70;;;4.40;;
25331;SDS011;13284;52.748;13.452;2022-08-04T08:56:15;4.47;;;4.17;;
25331;SDS011;13284;52.748;13.452;2022-08-04T08:59:04;4.03;;;3.73;;
25331;SDS011;13284;52.748;13.452;2022-08-04T09:05:07;4.20;;;3.90;;
25331;SDS011;13284;52.748;13.452;2022-08-04T09:11:05;4.23;;;3.30;;
25331;SDS011;13284;52.748;13.452;2022-08-04T09:17:12;3.60;;;3.30;;
25331;SDS011;13284;52.748;13.452;2022-08-04T09:19:26;3.00;;;2.80;;
25331;SDS011;13284;52.748;13.452;2022-08-04T09:22:38;2.97;;;2.77;;
25331;SDS011;13284;52.748;13.452;2022-08-04T09:25:20;3.23;;;3.03;;
25331;SDS011;13284;52.748;13.452;2022-08-04T09:27:51;3.53;;;3.30;;
25331;SDS011;13284;52.748;13.452;2022-08-04T09:30:20;2.73;;;2.60;;
25331;SDS011;13284;52.748;13.452;2022-08-04T09:33:10;2.93;;;2.73;;
25331;SDS011;13284;52.748;13.452;2022-08-04T09:38:22;3.27;;;3.07;;
25331;SDS011;13284;52.748;13.452;2022-08-04T09:44:27;2.67;;;2.47;;
25331;SDS011;13284;52.748;13.452;2022-08-04T09:47:50;2.87;;;2.77;;
25331;SDS011;13284;52.748;13.452;2022-08-04T09:50:03;3.10;;;2.90;;
25331;SDS011;13284;52.748;13.452;2022-08-04T09:55:42;3.60;;;3.30;;
25331;SDS011;13284;52.748;13.452;2022-08-04T10:01:07;8.13;;;3.63;;
25331;SDS011;13284;52.748;13.452;2022-08-04T10:03:37;3.10;;;2.90;;
25331;SDS011;13284;52.748;13.452;2022-08-04T10:09:42;4.00;;;2.63;;
25331;SDS011;13284;52.748;13.452;2022-08-04T10:12:34;3.10;;;2.90;;
25331;SDS011;13284;52.748;13.452;2022-08-04T10:18:11;3.60;;;3.03;;
25331;SDS011;13284;52.748;13.452;2022-08-04T10:26:59;3.57;;;3.27;;
25331;SDS011;13284;52.748;13.452;2022-08-04T10:29:29;3.60;;;3.40;;
25331;SDS011;13284;52.748;13.452;2022-08-04T10:34:57;3.63;;;3.43;;
25331;SDS011;13284;52.748;13.452;2022-08-04T10:37:49;3.80;;;3.50;;
25331;SDS011;13284;52.748;13.452;2022-08-04T10:40:25;2.93;;;2.70;;
25331;SDS011;13284;52.748;13.452;2022-08-04T10:43:32;3.47;;;3.20;;
25331;SDS011;13284;52.748;13.452;2022-08-04T10:46:18;3.30;;;2.90;;
25331;SDS011;13284;52.748;13.452;2022-08-04T10:54:00;3.77;;;3.47;;
25331;SDS011;13284;52.748;13.452;2022-08-04T10:59:16;3.43;;;2.80;;
25331;SDS011;13284;52.748;13.452;2022-08-04T11:01:48;3.47;;;3.17;;
25331;SDS011;13284;52.748;13.452;2022-08-04T11:04:28;3.13;;;2.93;;
25331;SDS011;13284;52.748;13.452;2022-08-04T11:07:01;5.60;;;3.20;;
25331;SDS011;13284;52.748;13.452;2022-08-04T11:09:28;3.03;;;2.83;;
25331;SDS011;13284;52.748;13.452;2022-08-04T11:11:57;2.87;;;2.70;;
25331;SDS011;13284;52.748;13.452;2022-08-04T11:14:36;42.77;;;7.73;;
25331;SDS011;13284;52.748;13.452;2022-08-04T11:17:12;3.47;;;3.17;;
25331;SDS011;13284;52.748;13.452;2022-08-04T11:22:26;3.30;;;3.10;;
25331;SDS011;13284;52.748;13.452;2022-08-04T11:30:42;2.70;;;2.50;;
25331;SDS011;13284;52.748;13.452;2022-08-04T11:38:55;8.10;;;3.50;;
25331;SDS011;13284;52.748;13.452;2022-08-04T11:41:34;3.40;;;3.00;;
25331;SDS011;13284;52.748;13.452;2022-08-04T11:44:02;2.80;;;2.53;;
25331;SDS011;13284;52.748;13.452;2022-08-04T11:46:38;6.77;;;3.53;;
25331;SDS011;13284;52.748;13.452;2022-08-04T11:49:07;6.30;;;3.57;;
25331;SDS011;13284;52.748;13.452;2022-08-04T11:51:57;3.77;;;3.47;;
25331;SDS011;13284;52.748;13.452;2022-08-04T11:54:26;3.30;;;3.10;;
25331;SDS011;13284;52.748;13.452;2022-08-04T11:56:52;3.67;;;3.37;;
25331;SDS011;13284;52.748;13.452;2022-08-04T11:59:19;5.83;;;3.90;;
25331;SDS011;13284;52.748;13.452;2022-08-04T12:07:40;3.57;;;3.37;;
25331;SDS011;13284;52.748;13.452;2022-08-04T12:13:00;3.47;;;3.27;;
25331;SDS011;13284;52.748;13.452;2022-08-04T12:16:16;3.43;;;3.13;;
25331;SDS011;13284;52.748;13.452;2022-08-04T12:18:38;3.23;;;3.03;;
25331;SDS011;13284;52.748;13.452;2022-08-04T12:21:21;3.20;;;3.00;;
25331;SDS011;13284;52.748;13.452;2022-08-04T12:24:07;4.10;;;3.50;;
25331;SDS011;13284;52.748;13.452;2022-08-04T12:26:41;3.47;;;3.20;;
25331;SDS011;13284;52.748;13.452;2022-08-04T12:29:14;3.47;;;3.27;;
25331;SDS011;13284;52.748;13.452;2022-08-04T12:31:47;3.43;;;3.23;;
25331;SDS011;13284;52.748;13.452;2022-08-04T12:34:15;4.30;;;4.00;;
25331;SDS011;13284;52.748;13.452;2022-08-04T12:36:59;4.30;;;3.90;;
25331;SDS011;13284;52.748;13.452;2022-08-04T12:39:31;6.03;;;4.17;;
25331;SDS011;13284;52.748;13.452;2022-08-04T12:44:36;6.33;;;4.40;;
25331;SDS011;13284;52.748;13.452;2022-08-04T12:47:07;3.40;;;3.20;;
25331;SDS011;13284;52.748;13.452;2022-08-04T12:49:34;3.43;;;3.23;;
25331;SDS011;13284;52.748;13.452;2022-08-04T12:52:05;4.23;;;3.93;;
25331;SDS011;13284;52.748;13.452;2022-08-04T12:54:35;4.80;;;4.50;;
25331;SDS011;13284;52.748;13.452;2022-08-04T12:57:05;4.03;;;3.70;;
25331;SDS011;13284;52.748;13.452;2022-08-04T12:59:38;4.40;;;4.10;;
25331;SDS011;13284;52.748;13.452;2022-08-04T13:02:04;3.83;;;3.57;;
25331;SDS011;13284;52.748;13.452;2022-08-04T13:04:35;4.23;;;3.93;;
25331;SDS011;13284;52.748;13.452;2022-08-04T13:07:08;4.03;;;3.73;;
25331;SDS011;13284;52.748;13.452;2022-08-04T13:09:39;4.00;;;3.80;;
25331;SDS011;13284;52.748;13.452;2022-08-04T13:12:13;4.57;;;4.13;;
25331;SDS011;13284;52.748;13.452;2022-08-04T13:14:41;3.83;;;3.63;;
25331;SDS011;13284;52.748;13.452;2022-08-04T13:17:09;14.60;;;5.30;;
25331;SDS011;13284;52.748;13.452;2022-08-04T13:19:35;10.70;;;3.73;;
25331;SDS011;13284;52.748;13.452;2022-08-04T13:22:02;5.57;;;3.90;;
25331;SDS011;13284;52.748;13.452;2022-08-04T13:24:29;3.73;;;3.53;;
25331;SDS011;13284;52.748;13.452;2022-08-04T13:26:57;3.00;;;2.80;;
25331;SDS011;13284;52.748;13.452;2022-08-04T13:29:36;4.73;;;4.33;;
25331;SDS011;13284;52.748;13.452;2022-08-04T13:32:06;4.80;;;4.50;;
25331;SDS011;13284;52.748;13.452;2022-08-04T13:34:33;4.90;;;4.57;;
25331;SDS011;13284;52.748;13.452;2022-08-04T13:37:03;91.20;;;17.43;;
25331;SDS011;13284;52.748;13.452;2022-08-04T13:39:30;3.70;;;3.50;;
25331;SDS011;13284;52.748;13.452;2022-08-04T13:41:59;3.97;;;3.77;;
25331;SDS011;13284;52.748;13.452;2022-08-04T13:44:28;8.97;;;4.10;;
25331;SDS011;13284;52.748;13.452;2022-08-04T13:47:02;4.13;;;3.93;;
25331;SDS011;13284;52.748;13.452;2022-08-04T13:49:30;5.83;;;5.33;;
25331;SDS011;13284;52.748;13.452;2022-08-04T13:51:57;5.83;;;5.43;;
25331;SDS011;13284;52.748;13.452;2022-08-04T13:54:35;6.20;;;5.67;;
25331;SDS011;13284;52.748;13.452;2022-08-04T13:57:00;4.67;;;4.37;;
25331;SDS011;13284;52.748;13.452;2022-08-04T13:59:32;3.73;;;3.53;;
25331;SDS011;13284;52.748;13.452;2022-08-04T14:02:05;3.60;;;3.40;;
25331;SDS011;13284;52.748;13.452;2022-08-04T14:04:34;3.50;;;3.30;;
25331;SDS011;13284;52.748;13.452;2022-08-04T14:07:05;4.43;;;3.30;;
25331;SDS011;13284;52.748;13.452;2022-08-04T14:09:37;3.53;;;3.33;;
25331;SDS011;13284;52.748;13.452;2022-08-04T14:12:13;2.80;;;2.70;;
25331;SDS011;13284;52.748;13.452;2022-08-04T14:14:45;3.20;;;3.00;;
25331;SDS011;13284;52.748;13.452;2022-08-04T14:17:16;3.23;;;3.03;;
25331;SDS011;13284;52.748;13.452;2022-08-04T14:19:52;3.53;;;3.33;;
25331;SDS011;13284;52.748;13.452;2022-08-04T14:27:40;7.43;;;6.73;;
25331;SDS011;13284;52.748;13.452;2022-08-04T14:30:32;8.53;;;6.03;;
25331;SDS011;13284;52.748;13.452;2022-08-04T14:33:01;6.53;;;6.03;;
25331;SDS011;13284;52.748;13.452;2022-08-04T14:35:29;11.10;;;9.97;;
25331;SDS011;13284;52.748;13.452;2022-08-04T14:38:06;10.90;;;9.90;;
25331;SDS011;13284;52.748;13.452;2022-08-04T14:40:34;4.70;;;4.20;;
25331;SDS011;13284;52.748;13.452;2022-08-04T14:43:01;3.73;;;3.37;;
25331;SDS011;13284;52.748;13.452;2022-08-04T14:47:59;3.67;;;3.37;;
25331;SDS011;13284;52.748;13.452;2022-08-04T14:50:31;3.70;;;3.40;;
25331;SDS011;13284;52.748;13.452;2022-08-04T14:53:08;6.07;;;5.50;;
25331;SDS011;13284;52.748;13.452;2022-08-04T14:55:41;8.57;;;7.87;;
25331;SDS011;13284;52.748;13.452;2022-08-04T15:00:48;7.40;;;6.70;;
25331;SDS011;13284;52.748;13.452;2022-08-04T15:03:15;6.07;;;5.67;;
25331;SDS011;13284;52.748;13.452;2022-08-04T15:05:43;6.67;;;6.10;;
25331;SDS011;13284;52.748;13.452;2022-08-04T15:08:11;6.13;;;5.53;;
25331;SDS011;13284;52.748;13.452;2022-08-04T15:10:37;6.30;;;5.70;;
25331;SDS011;13284;52.748;13.452;2022-08-04T15:13:03;5.17;;;4.77;;
25331;SDS011;13284;52.748;13.452;2022-08-04T15:15:30;4.60;;;4.20;;
25331;SDS011;13284;52.748;13.452;2022-08-04T15:17:57;4.33;;;4.03;;
25331;SDS011;13284;52.748;13.452;2022-08-04T15:20:24;5.93;;;5.43;;
25331;SDS011;13284;52.748;13.452;2022-08-04T15:22:50;4.00;;;3.70;;
25331;SDS011;13284;52.748;13.452;2022-08-04T15:25:15;5.20;;;4.80;;
25331;SDS011;13284;52.748;13.452;2022-08-04T15:27:42;5.33;;;4.83;;
25331;SDS011;13284;52.748;13.452;2022-08-04T15:30:11;4.93;;;4.53;;
25331;SDS011;13284;52.748;13.452;2022-08-04T15:32:40;5.07;;;4.57;;
25331;SDS011;13284;52.748;13.452;2022-08-04T15:35:12;5.10;;;4.60;;
25331;SDS011;13284;52.748;13.452;2022-08-04T15:40:26;4.73;;;4.43;;
25331;SDS011;13284;52.748;13.452;2022-08-04T15:43:22;5.33;;;4.93;;
25331;SDS011;13284;52.748;13.452;2022-08-04T15:46:12;5.73;;;5.23;;
25331;SDS011;13284;52.748;13.452;2022-08-04T15:48:38;4.20;;;3.90;;
25331;SDS011;13284;52.748;13.452;2022-08-04T15:51:05;5.00;;;4.10;;
25331;SDS011;13284;52.748;13.452;2022-08-04T15:58:52;7.23;;;6.60;;
25331;SDS011;13284;52.748;13.452;2022-08-04T16:01:19;8.33;;;6.30;;
25331;SDS011;13284;52.748;13.452;2022-08-04T16:16:27;6.17;;;5.63;;
25331;SDS011;13284;52.748;13.452;2022-08-04T16:19:09;6.73;;;5.40;;
25331;SDS011;13284;52.748;13.452;2022-08-04T16:21:57;5.40;;;5.00;;
25331;SDS011;13284;52.748;13.452;2022-08-04T16:24:36;6.57;;;4.77;;
25331;SDS011;13284;52.748;13.452;2022-08-04T16:27:07;5.10;;;4.70;;
25331;SDS011;13284;52.748;13.452;2022-08-04T16:29:43;5.17;;;4.70;;
25331;SDS011;13284;52.748;13.452;2022-08-04T16:32:15;5.20;;;4.80;;
25331;SDS011;13284;52.748;13.452;2022-08-04T16:37:22;6.57;;;5.90;;
25331;SDS011;13284;52.748;13.452;2022-08-04T16:40:22;5.87;;;5.40;;
25331;SDS011;13284;52.748;13.452;2022-08-04T16:42:49;6.00;;;5.40;;
25331;SDS011;13284;52.748;13.452;2022-08-04T16:45:15;6.07;;;5.53;;
25331;SDS011;13284;52.748;13.452;2022-08-04T16:50:15;5.63;;;5.20;;
25331;SDS011;13284;52.748;13.452;2022-08-04T16:52:43;4.13;;;3.83;;
25331;SDS011;13284;52.748;13.452;2022-08-04T16:55:19;4.67;;;4.27;;
25331;SDS011;13284;52.748;13.452;2022-08-04T16:57:46;5.50;;;5.10;;
25331;SDS011;13284;52.748;13.452;2022-08-04T17:00:12;4.40;;;4.10;;
25331;SDS011;13284;52.748;13.452;2022-08-04T17:02:38;3.97;;;3.77;;
25331;SDS011;13284;52.748;13.452;2022-08-04T17:05:04;4.33;;;4.03;;
25331;SDS011;13284;52.748;13.452;2022-08-04T17:07:52;4.53;;;4.23;;
25331;SDS011;13284;52.748;13.452;2022-08-04T17:10:29;4.80;;;4.40;;
25331;SDS011;13284;52.748;13.452;2022-08-04T17:13:00;4.90;;;4.30;;
25331;SDS011;13284;52.748;13.452;2022-08-04T17:15:26;5.20;;;4.80;;
25331;SDS011;13284;52.748;13.452;2022-08-04T17:17:53;6.47;;;5.90;;
25331;SDS011;13284;52.748;13.452;2022-08-04T17:20:38;6.30;;;5.80;;
25331;SDS011;13284;52.748;13.452;2022-08-04T17:23:24;8.43;;;5.60;;
25331;SDS011;13284;52.748;13.452;2022-08-04T17:25:52;5.83;;;5.43;;
25331;SDS011;13284;52.748;13.452;2022-08-04T17:28:19;4.53;;;4.20;;
25331;SDS011;13284;52.748;13.452;2022-08-04T17:30:46;5.67;;;5.27;;
25331;SDS011;13284;52.748;13.452;2022-08-04T17:33:13;8.60;;;5.87;;
25331;SDS011;13284;52.748;13.452;2022-08-04T17:35:40;7.03;;;6.20;;
25331;SDS011;13284;52.748;13.452;2022-08-04T17:38:06;7.00;;;6.40;;
25331;SDS011;13284;52.748;13.452;2022-08-04T17:40:32;6.97;;;6.30;;
25331;SDS011;13284;52.748;13.452;2022-08-04T17:43:01;6.80;;;6.20;;
25331;SDS011;13284;52.748;13.452;2022-08-04T17:45:31;7.13;;;6.53;;
25331;SDS011;13284;52.748;13.452;2022-08-04T17:47:56;6.83;;;6.30;;
25331;SDS011;13284;52.748;13.452;2022-08-04T17:50:25;8.60;;;7.73;;
25331;SDS011;13284;52.748;13.452;2022-08-04T17:52:59;7.27;;;6.77;;
25331;SDS011;13284;52.748;13.452;2022-08-04T17:55:37;16.70;;;15.10;;
25331;SDS011;13284;52.748;13.452;2022-08-04T18:00:41;12.30;;;11.20;;
25331;SDS011;13284;52.748;13.452;2022-08-04T18:03:06;8.57;;;7.77;;
25331;SDS011;13284;52.748;13.452;2022-08-04T18:05:32;7.80;;;7.07;;
25331;SDS011;13284;52.748;13.452;2022-08-04T18:08:05;8.23;;;7.53;;
25331;SDS011;13284;52.748;13.452;2022-08-04T18:10:41;8.93;;;7.70;;
25331;SDS011;13284;52.748;13.452;2022-08-04T18:13:07;8.63;;;7.83;;
25331;SDS011;13284;52.748;13.452;2022-08-04T18:15:33;7.77;;;7.17;;
25331;SDS011;13284;52.748;13.452;2022-08-04T18:18:15;8.07;;;7.27;;
25331;SDS011;13284;52.748;13.452;2022-08-04T18:20:42;7.17;;;6.50;;
25331;SDS011;13284;52.748;13.452;2022-08-04T18:23:10;7.00;;;6.40;;
25331;SDS011;13284;52.748;13.452;2022-08-04T18:25:37;6.80;;;6.20;;
25331;SDS011;13284;52.748;13.452;2022-08-04T18:28:04;6.50;;;5.90;;
25331;SDS011;13284;52.748;13.452;2022-08-04T18:30:34;6.47;;;5.87;;
25331;SDS011;13284;52.748;13.452;2022-08-04T18:33:00;6.67;;;6.10;;
25331;SDS011;13284;52.748;13.452;2022-08-04T18:35:26;5.33;;;4.90;;
25331;SDS011;13284;52.748;13.452;2022-08-04T18:37:53;6.17;;;5.50;;
25331;SDS011;13284;52.748;13.452;2022-08-04T18:40:19;6.43;;;5.93;;
25331;SDS011;13284;52.748;13.452;2022-08-04T18:42:45;7.30;;;6.60;;
25331;SDS011;13284;52.748;13.452;2022-08-04T18:45:10;7.33;;;6.70;;
25331;SDS011;13284;52.748;13.452;2022-08-04T18:47:37;6.53;;;5.93;;
25331;SDS011;13284;52.748;13.452;2022-08-04T18:50:04;5.43;;;4.80;;
25331;SDS011;13284;52.748;13.452;2022-08-04T18:52:30;8.07;;;6.77;;
25331;SDS011;13284;52.748;13.452;2022-08-04T18:54:56;18.93;;;15.60;;
25331;SDS011;13284;52.748;13.452;2022-08-04T18:57:22;9.67;;;8.77;;
25331;SDS011;13284;52.748;13.452;2022-08-04T18:59:51;7.30;;;5.43;;
25331;SDS011;13284;52.748;13.452;2022-08-04T19:02:19;5.00;;;4.50;;
25331;SDS011;13284;52.748;13.452;2022-08-04T19:04:44;4.80;;;4.40;;
25331;SDS011;13284;52.748;13.452;2022-08-04T19:07:10;5.63;;;5.13;;
25331;SDS011;13284;52.748;13.452;2022-08-04T19:09:37;5.40;;;4.60;;
25331;SDS011;13284;52.748;13.452;2022-08-04T19:12:04;5.47;;;3.73;;
25331;SDS011;13284;52.748;13.452;2022-08-04T19:14:29;4.80;;;4.50;;
25331;SDS011;13284;52.748;13.452;2022-08-04T19:16:55;4.73;;;3.73;;
25331;SDS011;13284;52.748;13.452;2022-08-04T19:19:21;4.47;;;4.07;;
25331;SDS011;13284;52.748;13.452;2022-08-04T19:21:46;5.40;;;4.90;;
25331;SDS011;13284;52.748;13.452;2022-08-04T19:24:12;17.60;;;15.87;;
25331;SDS011;13284;52.748;13.452;2022-08-04T19:26:37;8.80;;;8.00;;
25331;SDS011;13284;52.748;13.452;2022-08-04T19:29:04;10.80;;;9.70;;
25331;SDS011;13284;52.748;13.452;2022-08-04T19:31:29;6.17;;;5.47;;
25331;SDS011;13284;52.748;13.452;2022-08-04T19:33:55;8.63;;;7.90;;
25331;SDS011;13284;52.748;13.452;2022-08-04T19:36:21;10.87;;;9.37;;
25331;SDS011;13284;52.748;13.452;2022-08-04T19:38:47;21.33;;;16.20;;
25331;SDS011;13284;52.748;13.452;2022-08-04T19:41:13;16.27;;;13.13;;
25331;SDS011;13284;52.748;13.452;2022-08-04T19:43:38;6.70;;;6.10;;
25331;SDS011;13284;52.748;13.452;2022-08-04T19:46:05;11.30;;;8.97;;
25331;SDS011;13284;52.748;13.452;2022-08-04T19:48:31;12.57;;;11.37;;
25331;SDS011;13284;52.748;13.452;2022-08-04T19:50:57;5.37;;;4.60;;
25331;SDS011;13284;52.748;13.452;2022-08-04T19:53:22;5.63;;;5.00;;
25331;SDS011;13284;52.748;13.452;2022-08-04T19:55:48;6.47;;;4.90;;
25331;SDS011;13284;52.748;13.452;2022-08-04T19:58:14;4.30;;;4.00;;
25331;SDS011;13284;52.748;13.452;2022-08-04T20:00:40;3.57;;;3.33;;
25331;SDS011;13284;52.748;13.452;2022-08-04T20:03:06;3.47;;;3.10;;
25331;SDS011;13284;52.748;13.452;2022-08-04T20:05:33;10.30;;;9.30;;
25331;SDS011;13284;52.748;13.452;2022-08-04T20:07:59;4.20;;;3.90;;
25331;SDS011;13284;52.748;13.452;2022-08-04T20:10:24;7.73;;;7.03;;
25331;SDS011;13284;52.748;13.452;2022-08-04T20:12:51;3.80;;;3.50;;